createdAt,value
2024-03-02T00:01:08.583Z,10.70
2024-03-02T00:04:01.056Z,10.61
2024-03-02T00:06:56.353Z,10.71
2024-03-02T00:09:48.792Z,10.73
2024-03-02T00:12:41.833Z,10.75
2024-03-02T00:15:52.921Z,10.68
2024-03-02T00:18:45.375Z,10.68
2024-03-02T00:21:37.790Z,10.71
2024-03-02T00:24:36.973Z,10.64
2024-03-02T00:27:29.210Z,10.68
2024-03-02T00:31:01.262Z,10.59
2024-03-02T00:33:54.999Z,10.68
2024-03-02T00:36:47.007Z,10.65
2024-03-02T00:39:38.994Z,10.68
2024-03-02T00:42:32.930Z,10.68
2024-03-02T00:45:25.972Z,10.61
2024-03-02T00:48:18.239Z,10.56
2024-03-02T00:51:11.270Z,10.59
2024-03-02T00:54:08.570Z,10.61
2024-03-02T00:57:01.463Z,10.60
2024-03-02T00:59:54.284Z,10.59
2024-03-02T01:02:47.603Z,10.56
2024-03-02T01:05:44.461Z,10.50
2024-03-02T01:08:37.744Z,10.61
2024-03-02T01:11:31.183Z,10.68
2024-03-02T01:14:23.980Z,10.74
2024-03-02T01:17:16.068Z,10.75
2024-03-02T01:20:10.723Z,10.65
2024-03-02T01:23:03.777Z,10.68
2024-03-02T01:25:56.714Z,10.75
2024-03-02T01:28:49.380Z,10.75
2024-03-02T01:31:43.455Z,10.75
2024-03-02T01:34:36.728Z,10.76
2024-03-02T01:37:29.123Z,10.70
2024-03-02T01:40:21.572Z,10.66
2024-03-02T01:43:14.116Z,10.65
2024-03-02T01:46:06.605Z,10.71
2024-03-02T01:48:59.416Z,10.72
2024-03-02T01:51:52.539Z,10.68
2024-03-02T01:54:45.465Z,10.61
2024-03-02T01:57:38.251Z,10.66
2024-03-02T02:00:31.357Z,10.68
2024-03-02T02:03:24.251Z,10.74
2024-03-02T02:06:17.182Z,10.71
2024-03-02T02:09:09.473Z,10.73
2024-03-02T02:12:02.397Z,10.76
2024-03-02T02:14:55.214Z,10.73
2024-03-02T02:17:46.931Z,10.73
2024-03-02T02:20:39.266Z,10.70
2024-03-02T02:23:31.375Z,10.69
2024-03-02T02:26:24.136Z,10.66
2024-03-02T02:29:16.264Z,10.62
2024-03-02T02:32:08.348Z,10.61
2024-03-02T02:35:01.556Z,10.55
2024-03-02T02:37:57.147Z,10.51
2024-03-02T02:40:50.104Z,10.48
2024-03-02T02:43:42.201Z,10.40
2024-03-02T02:46:34.149Z,10.36
2024-03-02T02:49:26.235Z,10.36
2024-03-02T02:52:18.783Z,10.33
2024-03-02T02:55:16.909Z,10.21
2024-03-02T02:58:08.944Z,10.23
2024-03-02T03:01:01.467Z,10.17
2024-03-02T03:03:54.151Z,10.15
2024-03-02T03:06:47.360Z,10.13
2024-03-02T03:09:42.253Z,10.13
2024-03-02T03:12:35.411Z,10.08
2024-03-02T03:15:28.468Z,10.02
2024-03-02T03:18:21.312Z,10.02
2024-03-02T03:21:13.537Z,9.94
2024-03-02T03:24:06.646Z,9.95
2024-03-02T03:26:59.203Z,9.94
2024-03-02T03:29:51.246Z,9.91
2024-03-02T03:32:43.280Z,9.87
2024-03-02T03:35:35.912Z,9.83
2024-03-02T03:38:28.454Z,9.83
2024-03-02T03:41:20.324Z,9.82
2024-03-02T03:44:12.448Z,9.80
2024-03-02T03:47:04.267Z,9.80
2024-03-02T03:49:56.671Z,9.75
2024-03-02T03:52:49.251Z,9.72
2024-03-02T03:55:41.399Z,9.67
2024-03-02T03:58:33.586Z,9.65
2024-03-02T04:01:26.375Z,9.62
2024-03-02T04:04:18.335Z,9.52
2024-03-02T04:07:10.337Z,9.53
2024-03-02T04:10:02.389Z,9.55
2024-03-02T04:12:54.496Z,9.54
2024-03-02T04:15:46.691Z,9.55
2024-03-02T04:18:40.925Z,9.51
2024-03-02T04:21:33.672Z,9.53
2024-03-02T04:24:26.748Z,9.52
2024-03-02T04:27:19.422Z,9.42
2024-03-02T04:30:12.207Z,9.42
2024-03-02T04:33:05.365Z,9.41
2024-03-02T04:35:58.857Z,9.43
2024-03-02T04:38:51.384Z,9.38
2024-03-02T04:41:43.509Z,9.38
2024-03-02T04:44:35.445Z,9.19
2024-03-02T04:47:27.384Z,9.21
2024-03-02T04:50:19.961Z,9.27
2024-03-02T04:53:12.777Z,9.28
2024-03-02T04:56:08.662Z,9.34
2024-03-02T04:59:01.679Z,9.29
2024-03-02T05:01:54.624Z,9.29
2024-03-02T05:04:46.589Z,9.19
2024-03-02T05:07:38.590Z,9.10
2024-03-02T05:10:30.550Z,9.15
2024-03-02T05:13:22.710Z,9.18
2024-03-02T05:16:15.742Z,9.15
2024-03-02T05:19:09.432Z,9.21
2024-03-02T05:22:01.896Z,9.14
2024-03-02T05:24:54.468Z,9.13
2024-03-02T05:27:47.663Z,9.10
2024-03-02T05:30:39.667Z,9.18
2024-03-02T05:33:32.923Z,9.12
2024-03-02T05:36:26.070Z,9.17
2024-03-02T05:39:18.723Z,9.20
2024-03-02T05:42:12.036Z,9.14
2024-03-02T05:45:05.253Z,9.13
2024-03-02T05:47:58.447Z,9.13
2024-03-02T05:50:50.958Z,9.16
2024-03-02T05:53:44.072Z,9.10
2024-03-02T05:56:37.322Z,9.12
2024-03-02T05:59:29.541Z,9.20
2024-03-02T06:02:21.720Z,9.16
2024-03-02T06:05:13.878Z,9.13
2024-03-02T06:08:07.068Z,9.17
2024-03-02T06:10:59.694Z,9.24
2024-03-02T06:13:51.881Z,9.22
2024-03-02T06:16:44.656Z,9.37
2024-03-02T06:19:36.658Z,9.43
2024-03-02T06:22:28.622Z,9.50
2024-03-02T06:25:20.761Z,9.52
2024-03-02T06:28:12.607Z,9.56
2024-03-02T06:31:04.967Z,9.60
2024-03-02T06:33:57.586Z,9.60
2024-03-02T06:36:49.825Z,9.59
2024-03-02T06:39:42.856Z,9.72
2024-03-02T06:42:36.106Z,9.76
2024-03-02T06:45:28.665Z,9.83
2024-03-02T06:48:21.406Z,9.87
2024-03-02T06:51:13.702Z,9.89
2024-03-02T06:54:06.135Z,9.90
2024-03-02T06:56:58.821Z,9.91
2024-03-02T06:59:52.538Z,9.85
2024-03-02T07:02:45.520Z,9.81
2024-03-02T07:05:37.760Z,9.86
2024-03-02T07:08:29.845Z,9.85
2024-03-02T07:11:22.003Z,9.86
2024-03-02T07:14:15.035Z,9.84
2024-03-02T07:17:07.844Z,9.79
2024-03-02T07:20:00.012Z,9.80
2024-03-02T07:22:52.768Z,9.77
2024-03-02T07:28:40.169Z,9.82
2024-03-02T07:31:32.940Z,9.79
2024-03-02T07:34:24.618Z,9.88
2024-03-02T07:37:16.854Z,9.92
2024-03-02T07:40:12.525Z,9.97
2024-03-02T07:43:04.991Z,10.05
2024-03-02T07:45:58.241Z,10.17
2024-03-02T07:48:53.333Z,10.19
2024-03-02T07:51:46.477Z,10.29
2024-03-02T07:54:38.947Z,10.26
2024-03-02T07:57:30.895Z,10.37
2024-03-02T08:00:24.188Z,10.29
2024-03-02T08:03:16.777Z,10.26
2024-03-02T08:06:09.031Z,10.31
2024-03-02T08:09:02.159Z,10.33
2024-03-02T08:11:55.053Z,10.41
2024-03-02T08:14:47.126Z,10.50
2024-03-02T08:17:45.993Z,10.52
2024-03-02T08:20:38.293Z,10.59
2024-03-02T08:23:31.635Z,10.57
2024-03-02T08:26:23.810Z,10.64
2024-03-02T08:29:15.923Z,10.76
2024-03-02T08:32:08.357Z,10.84
2024-03-02T08:35:01.043Z,10.91
2024-03-02T08:37:53.051Z,11.04
2024-03-02T08:40:45.482Z,11.14
2024-03-02T08:43:38.122Z,11.18
2024-03-02T08:46:29.912Z,11.28
2024-03-02T08:49:21.931Z,11.35
2024-03-02T08:52:14.100Z,11.36
2024-03-02T08:55:07.030Z,11.42
2024-03-02T08:57:59.583Z,11.51
2024-03-02T09:00:52.218Z,11.62
2024-03-02T09:03:47.711Z,11.66
2024-03-02T09:06:40.156Z,11.62
2024-03-02T09:09:33.225Z,11.69
2024-03-02T09:12:26.222Z,11.74
2024-03-02T09:15:19.189Z,11.77
2024-03-02T09:18:11.456Z,11.83
2024-03-02T09:21:05.671Z,11.88
2024-03-02T09:23:58.499Z,11.94
2024-03-02T09:26:51.177Z,11.98
2024-03-02T09:29:44.107Z,12.09
2024-03-02T09:32:36.040Z,12.13
2024-03-02T09:35:27.920Z,12.15
2024-03-02T09:38:19.924Z,12.13
2024-03-02T09:41:13.090Z,12.17
2024-03-02T09:44:06.921Z,12.16
2024-03-02T09:46:59.013Z,12.22
2024-03-02T09:49:51.125Z,12.16
2024-03-02T09:52:52.120Z,12.20
2024-03-02T09:55:48.279Z,12.25
2024-03-02T09:58:41.093Z,12.31
2024-03-02T10:01:33.423Z,12.42
2024-03-02T10:04:28.225Z,12.42
2024-03-02T10:07:21.066Z,12.45
2024-03-02T10:10:17.569Z,12.44
2024-03-02T10:13:12.996Z,12.53
2024-03-02T10:16:15.069Z,12.66
2024-03-02T10:19:21.461Z,12.72
2024-03-02T10:22:13.974Z,12.67
2024-03-02T10:25:22.058Z,12.78
2024-03-02T10:28:20.178Z,12.85
2024-03-02T10:31:12.298Z,12.87
2024-03-02T10:34:05.004Z,12.93
2024-03-02T10:36:57.505Z,13.05
2024-03-02T10:39:50.325Z,13.04
2024-03-02T10:42:43.992Z,13.12
2024-03-02T10:45:36.464Z,13.08
2024-03-02T10:48:31.079Z,13.14
2024-03-02T10:51:23.637Z,13.08
2024-03-02T10:54:16.673Z,13.03
2024-03-02T10:57:12.218Z,13.17
2024-03-02T11:00:05.745Z,13.31
2024-03-02T11:03:11.424Z,13.30
2024-03-02T11:06:09.446Z,13.46
2024-03-02T11:09:09.774Z,13.58
2024-03-02T11:12:08.157Z,13.74
2024-03-02T11:15:02.472Z,13.84
2024-03-02T11:17:55.729Z,13.89
2024-03-02T11:20:49.312Z,13.92
2024-03-02T11:23:41.561Z,13.96
2024-03-02T11:26:41.273Z,13.82
2024-03-02T11:29:42.444Z,13.82
2024-03-02T11:32:34.632Z,13.80
2024-03-02T11:35:29.694Z,13.87
2024-03-02T11:38:22.512Z,13.89
2024-03-02T11:41:15.707Z,13.91
2024-03-02T11:44:13.030Z,13.94
2024-03-02T11:47:17.775Z,13.96
2024-03-02T11:50:10.748Z,13.94
2024-03-02T11:53:13.795Z,13.91
2024-03-02T11:56:10.496Z,14.04
2024-03-02T11:59:03.898Z,14.11
2024-03-02T12:01:56.871Z,14.06
2024-03-02T12:04:51.095Z,14.07
2024-03-02T12:07:44.907Z,14.12
2024-03-02T12:10:39.174Z,14.13
2024-03-02T12:13:31.538Z,14.18
2024-03-02T12:16:27.031Z,14.08
2024-03-02T12:19:21.592Z,14.14
2024-03-02T12:22:13.921Z,14.12
2024-03-02T12:25:07.038Z,14.12
2024-03-02T12:28:02.612Z,14.14
2024-03-02T12:30:55.810Z,14.19
2024-03-02T12:33:48.785Z,14.20
2024-03-02T12:36:42.888Z,14.23
2024-03-02T12:39:35.437Z,14.24
2024-03-02T12:42:28.030Z,14.28
2024-03-02T12:45:25.749Z,14.37
2024-03-02T12:48:18.705Z,14.43
2024-03-02T12:51:11.621Z,14.42
2024-03-02T12:54:06.328Z,14.46
2024-03-02T12:56:58.982Z,14.32
2024-03-02T12:59:51.810Z,14.42
2024-03-02T13:02:44.567Z,14.43
2024-03-02T13:05:36.441Z,14.46
2024-03-02T13:08:28.791Z,14.42
2024-03-02T13:11:26.573Z,14.42
2024-03-02T13:14:18.865Z,14.44
2024-03-02T13:17:11.649Z,14.39
2024-03-02T13:20:11.804Z,14.40
2024-03-02T13:23:04.867Z,14.34
2024-03-02T13:25:59.293Z,14.33
2024-03-02T13:28:51.759Z,14.35
2024-03-02T13:31:44.945Z,14.35
2024-03-02T13:34:38.353Z,14.37
2024-03-02T13:37:30.832Z,14.33
2024-03-02T13:40:24.750Z,14.27
2024-03-02T13:43:17.053Z,14.29
2024-03-02T13:46:11.051Z,14.19
2024-03-02T13:49:05.253Z,14.21
2024-03-02T13:51:57.942Z,14.14
2024-03-02T13:54:53.426Z,14.15
2024-03-02T13:57:45.898Z,14.01
2024-03-02T14:00:41.831Z,13.94
2024-03-02T14:03:34.780Z,13.89
2024-03-02T14:06:29.758Z,13.83
2024-03-02T14:09:23.570Z,13.76
2024-03-02T14:12:16.640Z,13.74
2024-03-02T14:15:09.159Z,13.67
2024-03-02T14:18:01.926Z,13.64
2024-03-02T14:20:54.693Z,13.63
2024-03-02T14:23:46.621Z,13.54
2024-03-02T14:26:39.114Z,13.46
2024-03-02T14:29:31.796Z,13.47
2024-03-02T14:32:23.673Z,13.48
2024-03-02T14:35:16.250Z,13.52
2024-03-02T14:38:09.177Z,13.44
2024-03-02T14:41:01.742Z,13.43
2024-03-02T14:43:53.962Z,13.36
2024-03-02T14:46:50.434Z,13.31
2024-03-02T14:49:44.060Z,13.30
2024-03-02T14:52:37.050Z,13.31
2024-03-02T14:55:30.045Z,13.29
2024-03-02T14:58:23.053Z,13.27
2024-03-02T15:01:17.086Z,13.28
2024-03-02T15:04:09.983Z,13.18
2024-03-02T15:07:02.918Z,13.11
2024-03-02T15:09:56.280Z,13.15
2024-03-02T15:12:49.250Z,13.05
2024-03-02T15:15:42.688Z,13.03
2024-03-02T15:18:36.045Z,13.06
2024-03-02T15:21:28.848Z,13.01
2024-03-02T15:24:20.816Z,12.98
2024-03-02T15:27:13.002Z,12.93
2024-03-02T15:30:07.729Z,12.91
2024-03-02T15:32:59.876Z,12.86
2024-03-02T15:35:51.909Z,12.86
2024-03-02T15:38:44.868Z,12.86
2024-03-02T15:41:36.939Z,12.73
2024-03-02T15:44:28.927Z,12.70
2024-03-02T15:47:21.109Z,12.70
2024-03-02T15:50:15.979Z,12.68
2024-03-02T15:53:07.815Z,12.64
2024-03-02T15:56:00.423Z,12.60
2024-03-02T15:58:53.255Z,12.61
2024-03-02T16:01:45.874Z,12.59
2024-03-02T16:04:38.443Z,12.60
2024-03-02T16:07:31.040Z,12.53
2024-03-02T16:10:22.979Z,12.52
2024-03-02T16:13:15.084Z,12.51
2024-03-02T16:16:08.203Z,12.52
2024-03-02T16:19:01.247Z,12.52
2024-03-02T16:21:54.101Z,12.52
2024-03-02T16:24:47.365Z,12.45
2024-03-02T16:27:41.397Z,12.39
2024-03-02T16:30:35.079Z,12.36
2024-03-02T16:33:27.170Z,12.30
2024-03-02T16:36:21.511Z,12.31
2024-03-02T16:39:14.300Z,12.23
2024-03-02T16:42:07.113Z,12.14
2024-03-02T16:44:59.087Z,12.10
2024-03-02T16:47:51.209Z,12.09
2024-03-02T16:50:44.560Z,12.05
2024-03-02T16:53:37.389Z,12.00
2024-03-02T16:56:30.166Z,11.98
2024-03-02T16:59:22.252Z,11.99
2024-03-02T17:02:15.584Z,11.91
2024-03-02T17:05:08.834Z,11.88
2024-03-02T17:08:01.070Z,11.89
2024-03-02T17:10:53.382Z,11.84
2024-03-02T17:13:46.090Z,11.78
2024-03-02T17:16:37.984Z,11.80
2024-03-02T17:19:30.101Z,11.81
2024-03-02T17:22:22.186Z,11.72
2024-03-02T17:25:14.422Z,11.71
2024-03-02T17:28:24.150Z,11.64
2024-03-02T17:31:16.555Z,11.61
2024-03-02T17:34:09.033Z,11.64
2024-03-02T17:37:01.865Z,11.56
2024-03-02T17:39:55.865Z,11.55
2024-03-02T17:42:48.567Z,11.56
2024-03-02T17:45:42.163Z,11.54
2024-03-02T17:48:34.349Z,11.50
2024-03-02T17:51:27.213Z,11.48
2024-03-02T17:54:19.206Z,11.48
2024-03-02T17:57:11.181Z,11.48
2024-03-02T18:00:03.354Z,11.51
2024-03-02T18:02:55.153Z,11.51
2024-03-02T18:05:47.131Z,11.47
2024-03-02T18:08:39.516Z,11.44
2024-03-02T18:11:32.183Z,11.44
2024-03-02T18:14:24.551Z,11.43
2024-03-02T18:17:17.236Z,11.39
2024-03-02T18:20:12.266Z,11.42
2024-03-02T18:23:04.768Z,11.43
2024-03-02T18:25:57.142Z,11.48
2024-03-02T18:28:49.194Z,11.47
2024-03-02T18:31:41.266Z,11.50
2024-03-02T18:34:36.241Z,11.51
2024-03-02T18:37:29.662Z,11.51
2024-03-02T18:40:22.574Z,11.55
2024-03-02T18:43:15.804Z,11.57
2024-03-02T18:46:11.216Z,11.52
2024-03-02T18:49:03.439Z,11.48
2024-03-02T18:51:56.423Z,11.49
2024-03-02T18:54:49.239Z,11.48
2024-03-02T18:57:41.632Z,11.39
2024-03-02T19:00:34.555Z,11.43
2024-03-02T19:03:27.237Z,11.42
2024-03-02T19:06:19.840Z,11.40
2024-03-02T19:09:12.328Z,11.41
2024-03-02T19:12:05.146Z,11.37
2024-03-02T19:14:57.445Z,11.32
2024-03-02T19:17:49.476Z,11.29
2024-03-02T19:20:44.113Z,11.21
2024-03-02T19:23:43.401Z,11.22
2024-03-02T19:26:37.947Z,11.25
2024-03-02T19:29:30.286Z,11.25
2024-03-02T19:32:23.437Z,11.16
2024-03-02T19:35:15.590Z,11.06
2024-03-02T19:38:08.632Z,11.05
2024-03-02T19:41:01.949Z,10.92
2024-03-02T19:43:55.062Z,10.97
2024-03-02T19:46:47.475Z,10.97
2024-03-02T19:49:39.570Z,10.96
2024-03-02T19:52:32.511Z,10.90
2024-03-02T19:55:30.386Z,10.95
2024-03-02T19:58:22.539Z,10.94
2024-03-02T20:01:18.218Z,10.93
2024-03-02T20:04:11.182Z,10.94
2024-03-02T20:07:03.708Z,10.86
2024-03-02T20:09:56.737Z,10.88
2024-03-02T20:12:49.566Z,10.84
2024-03-02T20:15:41.953Z,10.84
2024-03-02T20:18:34.606Z,10.80
2024-03-02T20:21:26.478Z,10.79
2024-03-02T20:24:18.567Z,10.77
2024-03-02T20:27:10.743Z,10.75
2024-03-02T20:30:04.160Z,10.72
2024-03-02T20:32:56.891Z,10.69
2024-03-02T20:35:49.919Z,10.70
2024-03-02T20:38:43.581Z,10.73
2024-03-02T20:41:37.387Z,10.68
2024-03-02T20:44:30.022Z,10.65
2024-03-02T20:47:23.877Z,10.64
2024-03-02T20:50:16.717Z,10.64
2024-03-02T20:53:09.568Z,10.64
2024-03-02T20:56:01.855Z,10.65
2024-03-02T20:58:54.824Z,10.62
2024-03-02T21:01:50.688Z,10.53
2024-03-02T21:04:45.998Z,10.57
2024-03-02T21:07:39.317Z,10.57
2024-03-02T21:10:31.491Z,10.56
2024-03-02T21:13:23.584Z,10.52
2024-03-02T21:16:17.429Z,10.55
2024-03-02T21:19:10.368Z,10.50
2024-03-02T21:22:06.091Z,10.50
2024-03-02T21:25:02.150Z,10.49
2024-03-02T21:27:54.753Z,10.45
2024-03-02T21:30:46.802Z,10.44
2024-03-02T21:33:39.923Z,10.38
2024-03-02T21:36:32.970Z,10.41
2024-03-02T21:39:32.322Z,10.40
2024-03-02T21:42:31.787Z,10.39
2024-03-02T21:45:24.370Z,10.36
2024-03-02T21:48:16.856Z,10.38
2024-03-02T21:51:13.254Z,10.36
2024-03-02T21:54:05.648Z,10.36
2024-03-02T21:56:58.776Z,10.39
2024-03-02T21:59:50.677Z,10.40
2024-03-02T22:02:43.080Z,10.33
2024-03-02T22:05:36.206Z,10.31
2024-03-02T22:08:28.929Z,10.24
2024-03-02T22:11:22.076Z,10.26
2024-03-02T22:14:18.050Z,10.27
2024-03-02T22:17:12.518Z,10.20
2024-03-02T22:20:05.111Z,10.19
2024-03-02T22:22:58.639Z,10.18
2024-03-02T22:25:51.040Z,10.20
2024-03-02T22:28:44.910Z,10.20
2024-03-02T22:31:37.064Z,10.16
2024-03-02T22:34:29.873Z,10.11
2024-03-02T22:37:23.058Z,10.14
2024-03-02T22:40:16.442Z,10.13
2024-03-02T22:43:08.825Z,10.14
2024-03-02T22:46:00.988Z,10.17
2024-03-02T22:48:55.250Z,10.15
2024-03-02T22:51:47.977Z,10.17
2024-03-02T22:54:40.910Z,10.17
2024-03-02T22:57:32.863Z,10.15
2024-03-02T23:00:38.561Z,10.20
2024-03-02T23:03:30.969Z,10.19
2024-03-02T23:06:24.097Z,10.17
2024-03-02T23:09:16.904Z,10.19
2024-03-02T23:12:08.945Z,10.19
2024-03-02T23:15:00.947Z,10.24
2024-03-02T23:17:52.817Z,10.28
2024-03-02T23:20:45.099Z,10.27
2024-03-02T23:23:39.011Z,10.34
2024-03-02T23:26:30.965Z,10.34
2024-03-02T23:29:23.024Z,10.30
2024-03-02T23:32:15.066Z,10.31
2024-03-02T23:35:08.406Z,10.30
2024-03-02T23:38:01.002Z,10.26
2024-03-02T23:41:09.448Z,10.30
2024-03-02T23:44:03.016Z,10.29
2024-03-02T23:46:56.492Z,10.32
2024-03-02T23:49:49.187Z,10.26
2024-03-02T23:52:42.171Z,10.29
2024-03-02T23:55:46.518Z,10.28
2024-03-02T23:58:45.915Z,10.29
